Terminal Aerodrome Forecast
Issued by NWS

Home | Current Version | Previous Version | Text Only | Print | Product List | Glossary On
Versions: 1 2 3 4 5 6 7 8 9 10 11 12 13 14 15 16 17 18
000
FTUS45 KGGW 041800 AAA
TAFSDY
TAF AMD
KSDY 041858Z 0419/0518 17008KT 6SM HZ SCT120
     FM042000 VRB05KT P6SM VCTS SCT080CB
      TEMPO 0420/0422 VRB15G25KT TSRA OVC070CB
     FM050000 36009KT P6SM -TSRA BKN060CB
     FM051000 35012KT P6SM -SHRA BKN050
      AMD LTD TO CLD VIS AND WIND=

USA.gov is the U.S. government's official web portal to all federal, state and local government web resources and services.